createdAt,value
2019-05-09T00:01:24.210Z,3.90
2019-05-09T00:03:25.673Z,4.50
2019-05-09T00:05:26.936Z,3.67
2019-05-09T00:07:28.208Z,3.58
2019-05-09T00:09:29.471Z,3.17
2019-05-09T00:11:30.758Z,3.47
2019-05-09T00:13:34.244Z,3.12
2019-05-09T00:15:35.673Z,3.65
2019-05-09T00:17:37.291Z,4.95
2019-05-09T00:19:38.558Z,5.70
2019-05-09T00:21:54.081Z,7.20
2019-05-09T00:23:55.496Z,6.22
2019-05-09T00:25:56.945Z,8.40
2019-05-09T00:27:59.174Z,7.62
2019-05-09T00:30:00.838Z,7.35
2019-05-09T00:34:23.428Z,5.95
2019-05-09T00:36:24.827Z,6.20
2019-05-09T00:38:36.809Z,5.62
2019-05-09T00:40:52.362Z,5.92
2019-05-09T00:42:41.329Z,4.50
2019-05-09T00:44:53.734Z,6.03
2019-05-09T00:47:04.218Z,6.00
2019-05-09T00:49:07.581Z,6.75
2019-05-09T00:51:08.849Z,5.83
2019-05-09T00:53:10.128Z,7.78
2019-05-09T00:55:13.208Z,9.65
2019-05-09T00:59:34.989Z,12.03
2019-05-09T01:01:36.254Z,10.28
2019-05-09T01:03:37.529Z,13.28
2019-05-09T01:05:38.938Z,14.15
2019-05-09T01:07:40.244Z,13.98
2019-05-09T01:09:43.866Z,15.05
2019-05-09T01:11:45.101Z,14.87
2019-05-09T01:15:47.790Z,15.23
2019-05-09T01:17:49.062Z,16.32
2019-05-09T01:19:53.861Z,15.75
2019-05-09T01:21:56.477Z,16.25
2019-05-09T01:23:58.087Z,13.83
2019-05-09T01:25:59.839Z,15.05
2019-05-09T01:28:03.141Z,14.65
2019-05-09T01:30:04.907Z,15.70
2019-05-09T01:32:08.690Z,14.58
2019-05-09T01:34:15.169Z,15.03
2019-05-09T01:36:16.453Z,14.40
2019-05-09T01:38:18.753Z,15.20
2019-05-09T01:40:20.026Z,14.90
2019-05-09T01:42:23.185Z,13.80
2019-05-09T01:44:24.472Z,13.78
2019-05-09T01:46:25.845Z,14.50
2019-05-09T01:48:27.117Z,13.90
2019-05-09T01:50:28.426Z,15.25
2019-05-09T01:52:30.110Z,15.72
2019-05-09T01:56:34.440Z,15.72
2019-05-09T01:58:35.985Z,16.42
2019-05-09T02:00:37.251Z,17.12
2019-05-09T02:02:38.508Z,16.52
2019-05-09T02:04:43.856Z,17.48
2019-05-09T02:06:44.954Z,16.87
2019-05-09T02:08:46.303Z,16.32
2019-05-09T02:10:48.957Z,17.12
2019-05-09T02:12:50.252Z,15.83
2019-05-09T02:15:00.133Z,17.10
2019-05-09T02:17:19.818Z,17.15
2019-05-09T02:19:25.606Z,16.15
2019-05-09T02:21:26.862Z,16.65
2019-05-09T02:23:28.270Z,17.25
2019-05-09T02:25:29.638Z,16.87
2019-05-09T02:27:33.244Z,15.93
2019-05-09T02:29:34.761Z,16.10
2019-05-09T02:31:37.112Z,17.48
2019-05-09T02:33:39.005Z,18.62
2019-05-09T02:35:51.734Z,16.45
2019-05-09T02:37:44.966Z,17.40
2019-05-09T02:39:49.045Z,16.42
2019-05-09T02:42:01.029Z,17.67
2019-05-09T02:43:52.967Z,16.65
2019-05-09T02:45:59.683Z,15.80
2019-05-09T02:48:01.197Z,15.60
2019-05-09T02:50:08.572Z,13.83
2019-05-09T02:52:09.109Z,13.72
2019-05-09T02:56:12.007Z,14.30
2019-05-09T03:00:20.362Z,13.32
2019-05-09T03:02:23.695Z,12.50
2019-05-09T03:04:28.163Z,13.15
2019-05-09T03:06:28.672Z,11.93
2019-05-09T03:08:30.208Z,11.63
2019-05-09T03:10:31.483Z,11.10
2019-05-09T03:12:35.878Z,10.95
2019-05-09T03:14:38.487Z,11.22
2019-05-09T03:16:40.225Z,11.40
2019-05-09T03:18:41.842Z,10.72
2019-05-09T03:20:49.483Z,10.95
2019-05-09T03:22:50.971Z,10.53
2019-05-09T03:24:54.185Z,9.60
2019-05-09T03:27:03.432Z,9.25
2019-05-09T03:29:08.797Z,9.20
2019-05-09T03:31:14.306Z,9.28
2019-05-09T03:33:15.658Z,8.98
2019-05-09T03:35:17.375Z,8.08
2019-05-09T03:39:20.152Z,8.40
2019-05-09T03:41:21.826Z,8.08
2019-05-09T03:45:24.245Z,8.63
2019-05-09T03:47:27.663Z,7.92
2019-05-09T03:49:29.250Z,8.55
2019-05-09T03:51:30.793Z,7.60
2019-05-09T03:53:33.065Z,7.75
2019-05-09T03:55:35.238Z,7.53
2019-05-09T03:57:41.379Z,6.60
2019-05-09T03:59:42.929Z,6.90
2019-05-09T04:01:46.918Z,6.28
2019-05-09T04:03:48.191Z,6.53
2019-05-09T04:05:58.626Z,6.87
2019-05-09T04:07:54.821Z,6.10
2019-05-09T04:09:58.383Z,6.10
2019-05-09T04:12:00.290Z,5.60
2019-05-09T04:14:03.739Z,5.20
2019-05-09T04:16:07.509Z,5.75
2019-05-09T04:18:08.679Z,5.20
2019-05-09T04:20:11.556Z,4.87
2019-05-09T04:22:12.871Z,5.20
2019-05-09T04:24:14.142Z,5.12
2019-05-09T04:26:17.697Z,5.30
2019-05-09T04:28:19.125Z,6.08
2019-05-09T04:30:20.763Z,5.10
2019-05-09T04:34:23.685Z,4.75
2019-05-09T04:36:39.874Z,4.80
2019-05-09T04:38:41.934Z,4.33
2019-05-09T04:40:45.851Z,4.45
2019-05-09T04:42:47.620Z,4.70
2019-05-09T04:44:57.453Z,5.17
2019-05-09T04:46:59.093Z,4.75
2019-05-09T04:48:59.499Z,4.58
2019-05-09T04:51:03.193Z,4.50
2019-05-09T04:53:04.458Z,4.75
2019-05-09T04:55:07.864Z,6.08
2019-05-09T04:57:09.445Z,4.30
2019-05-09T04:59:10.791Z,4.78
2019-05-09T05:01:32.591Z,4.30
2019-05-09T05:03:34.362Z,4.33
2019-05-09T05:05:37.131Z,4.15
2019-05-09T05:07:38.909Z,4.20
2019-05-09T05:09:40.527Z,4.50
2019-05-09T05:13:43.323Z,4.00
2019-05-09T05:17:48.304Z,4.20
2019-05-09T05:19:52.169Z,4.35
2019-05-09T05:23:58.939Z,4.70
2019-05-09T05:26:00.507Z,4.70
2019-05-09T05:28:03.098Z,4.80
2019-05-09T05:32:08.598Z,4.70
2019-05-09T05:34:18.297Z,4.15
2019-05-09T05:36:21.331Z,4.17
2019-05-09T05:38:22.622Z,4.72
2019-05-09T05:40:23.925Z,5.20
2019-05-09T05:42:27.702Z,4.80
2019-05-09T05:44:28.698Z,4.95
2019-05-09T05:46:34.849Z,4.87
2019-05-09T05:48:38.415Z,5.33
2019-05-09T05:50:39.945Z,5.28
2019-05-09T05:52:41.254Z,4.90
2019-05-09T05:54:42.646Z,4.60
2019-05-09T05:56:44.319Z,4.97
2019-05-09T06:00:48.084Z,4.83
2019-05-09T06:02:50.001Z,5.12
2019-05-09T06:04:51.271Z,4.12
2019-05-09T06:06:52.543Z,5.65
2019-05-09T06:08:54.131Z,5.28
2019-05-09T06:10:57.489Z,5.40
2019-05-09T06:12:58.666Z,4.70
2019-05-09T06:14:59.929Z,4.50
2019-05-09T06:17:01.194Z,4.12
2019-05-09T06:19:02.564Z,3.60
2019-05-09T06:21:03.930Z,3.55
2019-05-09T06:23:05.206Z,4.00
2019-05-09T06:25:09.829Z,3.47
2019-05-09T06:27:11.854Z,3.50
2019-05-09T06:31:14.634Z,2.87
2019-05-09T06:33:18.015Z,4.00
2019-05-09T06:35:22.962Z,3.87
2019-05-09T06:41:28.624Z,3.80
2019-05-09T20:27:24.874Z,2.25
2019-05-09T20:29:45.150Z,2.00
2019-05-09T20:41:27.411Z,1.92
2019-05-09T21:32:48.955Z,2.50
2019-05-09T21:56:06.817Z,2.10
2019-05-09T21:58:26.658Z,1.80
2019-05-09T22:10:08.922Z,3.15
2019-05-09T22:12:28.960Z,2.90
2019-05-09T22:14:49.013Z,3.30
2019-05-09T22:17:13.756Z,3.22
2019-05-09T22:19:33.685Z,3.22
2019-05-09T22:21:53.863Z,3.42
2019-05-09T22:24:13.742Z,3.50
2019-05-09T22:26:33.599Z,3.37
2019-05-09T22:28:53.317Z,4.03
2019-05-09T22:31:13.388Z,5.20
2019-05-09T22:33:33.303Z,3.77
2019-05-09T22:35:53.476Z,3.90
2019-05-09T22:38:13.634Z,3.95
2019-05-09T22:40:33.825Z,4.42
2019-05-09T22:42:53.862Z,4.87
2019-05-09T22:45:14.097Z,5.53
2019-05-09T22:47:34.063Z,6.47
2019-05-09T22:49:54.361Z,8.53
2019-05-09T22:52:14.481Z,10.15
2019-05-09T22:54:34.621Z,10.38
2019-05-09T22:56:54.480Z,11.08
2019-05-09T22:59:14.722Z,11.35
2019-05-09T23:01:35.398Z,12.60
2019-05-09T23:03:55.642Z,12.55
2019-05-09T23:06:15.654Z,13.55
2019-05-09T23:08:35.545Z,14.10
2019-05-09T23:10:55.428Z,14.98
2019-05-09T23:13:16.262Z,14.95
2019-05-09T23:15:36.358Z,15.50
2019-05-09T23:17:56.341Z,16.60
2019-05-09T23:20:34.406Z,15.38
2019-05-09T23:22:54.157Z,15.85
2019-05-09T23:25:13.890Z,16.87
2019-05-09T23:27:33.642Z,17.65
2019-05-09T23:29:53.714Z,19.00
2019-05-09T23:32:18.287Z,18.00
2019-05-09T23:34:39.826Z,18.67
2019-05-09T23:37:00.135Z,19.10
2019-05-09T23:39:22.400Z,18.90
2019-05-09T23:44:02.808Z,19.75
2019-05-09T23:46:23.197Z,18.05
2019-05-09T23:48:43.159Z,19.42
2019-05-09T23:51:02.993Z,21.15
2019-05-09T23:53:31.001Z,21.00
2019-05-09T23:56:09.627Z,20.57
2019-05-09T23:58:48.064Z,21.48
